Time;durP1;ratioP1;P1;durP2;ratioP2;P2;SDS_P1;SDS_P2;PMS_P1;PMS_P2;Temp;Humidity;BMP_temperature;BMP_pressure;BME280_temperature;BME280_humidity;BME280_pressure;Samples;Min_cycle;Max_cycle;Signal;HPM_P1;HPM_P2
2021/04/18 00:01:02;;;;;;;2.07;1.23;;;29.40;26.90;;;;;;5167052;27;20599;-37
2021/04/18 00:03:32;;;;;;;1.60;1.50;;;29.30;25.40;;;;;;5167526;27;20463;-39
2021/04/18 00:06:02;;;;;;;2.73;1.30;;;29.30;25.30;;;;;;5167598;27;20448;-39
2021/04/18 00:08:32;;;;;;;1.60;1.40;;;29.20;25.10;;;;;;5166598;27;20476;-38
2021/04/18 00:11:02;;;;;;;1.70;1.30;;;29.10;25.60;;;;;;5167254;27;20858;-38
2021/04/18 00:13:32;;;;;;;2.10;1.30;;;29.00;25.80;;;;;;5166324;27;20465;-37
2021/04/18 00:16:04;;;;;;;1.70;1.30;;;29.00;25.60;;;;;;5150375;27;20438;-36
2021/04/18 00:18:34;;;;;;;2.00;1.83;;;28.90;24.40;;;;;;5167463;27;20848;-38
2021/04/18 00:21:04;;;;;;;1.37;1.27;;;28.80;26.20;;;;;;5167065;27;20487;-36
2021/04/18 00:23:34;;;;;;;3.50;1.23;;;28.70;23.90;;;;;;5166635;27;20457;-39
2021/04/18 00:26:05;;;;;;;2.70;1.40;;;28.60;26.20;;;;;;5166870;27;20467;-37
2021/04/18 00:28:35;;;;;;;1.50;1.40;;;28.50;26.70;;;;;;5166474;27;20447;-39
2021/04/18 00:31:07;;;;;;;1.50;1.40;;;28.40;26.60;;;;;;5167259;27;20447;-37
2021/04/18 00:33:37;;;;;;;1.50;1.40;;;28.40;26.10;;;;;;5166490;27;20447;-34
2021/04/18 00:36:12;;;;;;;1.50;1.40;;;28.50;25.40;;;;;;5165586;27;20978;-40
2021/04/18 00:38:42;;;;;;;2.40;1.60;;;28.40;25.80;;;;;;5154624;27;20986;-39
2021/04/18 00:41:13;;;;;;;1.57;1.47;;;28.30;26.60;;;;;;5159241;27;20579;-37
2021/04/18 00:43:44;;;;;;;1.80;1.70;;;28.10;26.60;;;;;;5163649;27;20479;-37
2021/04/18 00:46:16;;;;;;;2.37;1.63;;;28.10;27.40;;;;;;5166940;27;20497;-38
2021/04/18 00:48:47;;;;;;;1.47;1.33;;;28.00;25.40;;;;;;5166076;27;20450;-40
2021/04/18 00:51:17;;;;;;;1.50;1.30;;;28.00;26.50;;;;;;5166036;27;20613;-39
2021/04/18 00:53:47;;;;;;;3.10;1.87;;;27.90;27.10;;;;;;5149636;27;20453;-38
2021/04/18 00:56:17;;;;;;;1.87;1.30;;;27.80;27.60;;;;;;5165583;27;20451;-39
2021/04/18 00:58:48;;;;;;;1.53;1.43;;;27.70;26.80;;;;;;5166326;27;20489;-39
2021/04/18 01:01:19;;;;;;;2.73;1.53;;;27.70;27.10;;;;;;5165663;27;20478;-40
2021/04/18 01:03:50;;;;;;;1.63;1.43;;;27.50;27.50;;;;;;5148876;27;20447;-39
2021/04/18 01:06:20;;;;;;;1.63;1.53;;;27.50;27.10;;;;;;5165715;27;20461;-37
2021/04/18 01:08:50;;;;;;;2.00;1.40;;;27.40;27.70;;;;;;5157120;27;20445;-38
2021/04/18 01:11:21;;;;;;;2.17;1.57;;;27.20;28.00;;;;;;5165369;27;20450;-37
2021/04/18 01:13:51;;;;;;;2.50;2.37;;;27.20;28.20;;;;;;5166030;27;20491;-39
2021/04/18 01:16:22;;;;;;;2.00;1.80;;;27.10;28.00;;;;;;5164245;27;20465;-37
2021/04/18 01:18:52;;;;;;;1.70;1.60;;;27.10;27.30;;;;;;5164394;27;20473;-37
2021/04/18 01:21:23;;;;;;;2.13;1.50;;;27.10;27.60;;;;;;5165619;27;20532;-38
2021/04/18 01:23:53;;;;;;;1.80;1.70;;;27.10;26.50;;;;;;5165876;27;20535;-40
2021/04/18 01:26:23;;;;;;;2.90;2.03;;;27.00;27.30;;;;;;5160829;27;20451;-40
2021/04/18 01:28:53;;;;;;;2.60;2.20;;;26.80;27.40;;;;;;5163054;27;20519;-38
2021/04/18 01:31:23;;;;;;;1.93;1.73;;;26.80;28.20;;;;;;5164979;27;20448;-38
2021/04/18 01:33:54;;;;;;;2.03;1.63;;;26.70;26.90;;;;;;5165343;27;20449;-38
2021/04/18 01:36:25;;;;;;;2.00;1.77;;;26.80;26.70;;;;;;5164307;27;20444;-39
2021/04/18 01:38:56;;;;;;;1.40;1.30;;;26.70;26.30;;;;;;5165430;27;20508;-39
2021/04/18 01:41:26;;;;;;;2.80;2.60;;;26.80;26.20;;;;;;5164207;27;20464;-39
2021/04/18 01:43:57;;;;;;;2.77;2.57;;;26.70;27.20;;;;;;5166169;27;20505;-37
2021/04/18 01:46:27;;;;;;;2.87;2.67;;;26.50;27.20;;;;;;5164870;27;20449;-38
2021/04/18 01:48:57;;;;;;;1.87;1.77;;;26.30;28.20;;;;;;5164893;27;20506;-38
2021/04/18 01:51:28;;;;;;;2.30;2.10;;;26.20;28.40;;;;;;5165337;27;20525;-38
2021/04/18 01:53:58;;;;;;;2.80;1.80;;;26.10;28.90;;;;;;5165069;27;20466;-39
2021/04/18 01:56:28;;;;;;;1.93;1.83;;;26.00;28.70;;;;;;5164117;27;20443;-39
2021/04/18 01:58:59;;;;;;;2.23;2.03;;;25.90;28.20;;;;;;5165657;27;20436;-38
2021/04/18 02:01:29;;;;;;;2.10;1.90;;;25.80;28.40;;;;;;5159258;27;20449;-38
2021/04/18 02:03:59;;;;;;;3.00;2.67;;;25.80;28.20;;;;;;5159808;27;20444;-39
2021/04/18 02:06:30;;;;;;;2.70;2.47;;;25.60;29.30;;;;;;5163423;27;20451;-39
2021/04/18 02:09:00;;;;;;;3.23;2.97;;;25.50;28.50;;;;;;5165137;27;20848;-38
2021/04/18 02:11:37;;;;;;;2.43;2.23;;;25.40;29.00;;;;;;5163892;27;20439;-38
2021/04/18 02:14:08;;;;;;;2.57;2.37;;;25.30;29.50;;;;;;5165326;27;20446;-38
2021/04/18 02:16:38;;;;;;;2.50;2.30;;;25.30;29.30;;;;;;5164750;27;20460;-40
2021/04/18 02:19:08;;;;;;;2.50;2.30;;;25.20;29.10;;;;;;5164912;27;20473;-39
2021/04/18 02:21:39;;;;;;;2.90;2.10;;;25.10;29.80;;;;;;5164714;27;20488;-36
2021/04/18 02:24:10;;;;;;;4.23;2.33;;;25.00;29.90;;;;;;5161358;27;20440;-40
2021/04/18 02:26:40;;;;;;;4.20;3.80;;;24.90;31.10;;;;;;5163990;27;20504;-39
2021/04/18 02:29:10;;;;;;;4.60;4.30;;;24.80;31.20;;;;;;5164145;27;20459;-39
2021/04/18 02:31:40;;;;;;;4.90;4.27;;;24.60;30.10;;;;;;5161852;27;20809;-39
2021/04/18 02:34:11;;;;;;;5.43;5.03;;;24.50;30.00;;;;;;5158367;27;20484;-38
2021/04/18 02:36:42;;;;;;;5.27;4.87;;;24.40;29.90;;;;;;5158231;27;20445;-40
2021/04/18 02:39:12;;;;;;;4.53;4.13;;;24.30;31.30;;;;;;5162532;27;20539;-38
2021/04/18 02:41:43;;;;;;;3.60;3.40;;;24.20;31.20;;;;;;5162885;27;20611;-38
2021/04/18 02:44:13;;;;;;;3.30;3.00;;;24.00;30.90;;;;;;5163673;27;20451;-39
2021/04/18 02:46:43;;;;;;;3.67;2.87;;;23.80;32.50;;;;;;5164391;27;20444;-38
2021/04/18 02:49:14;;;;;;;3.30;3.00;;;23.70;33.90;;;;;;5163611;27;20928;-38
2021/04/18 02:51:45;;;;;;;3.53;3.27;;;23.50;36.40;;;;;;5164213;27;20520;-39
2021/04/18 02:54:15;;;;;;;3.63;2.90;;;23.30;38.90;;;;;;5153089;27;20470;-37
2021/04/18 02:56:45;;;;;;;3.40;3.20;;;23.10;36.20;;;;;;5156557;27;20428;-35
2021/04/18 02:59:15;;;;;;;4.23;3.07;;;22.90;41.80;;;;;;5164612;27;20473;-38
2021/04/18 03:01:45;;;;;;;3.10;2.90;;;22.70;40.70;;;;;;5162776;27;20448;-39
2021/04/18 03:04:15;;;;;;;2.60;2.40;;;22.60;41.00;;;;;;5164304;27;20444;-39
2021/04/18 03:06:46;;;;;;;2.50;2.30;;;22.40;39.70;;;;;;5164124;27;20444;-38
2021/04/18 03:09:16;;;;;;;2.77;2.57;;;22.30;42.20;;;;;;5164205;27;20455;-37
2021/04/18 03:11:46;;;;;;;3.23;2.93;;;22.10;46.00;;;;;;5163555;27;20459;-39
2021/04/18 03:14:16;;;;;;;3.60;3.30;;;22.00;47.50;;;;;;5162494;27;20500;-36
2021/04/18 03:16:46;;;;;;;4.63;3.60;;;21.90;48.60;;;;;;5150850;27;20447;-39
2021/04/18 03:19:17;;;;;;;5.07;3.97;;;21.70;47.90;;;;;;5164490;27;20477;-39
2021/04/18 03:21:48;;;;;;;4.87;4.57;;;21.50;48.80;;;;;;5162040;27;20440;-37
2021/04/18 03:24:18;;;;;;;4.83;4.37;;;21.40;50.30;;;;;;5160791;27;20443;-36
2021/04/18 03:26:48;;;;;;;4.47;4.17;;;21.20;51.30;;;;;;5161267;27;20444;-34
2021/04/18 03:29:18;;;;;;;6.77;6.20;;;21.20;51.70;;;;;;5164305;27;20463;-35
2021/04/18 03:31:48;;;;;;;17.30;13.80;;;21.00;47.00;;;;;;5163237;27;20448;-37
2021/04/18 03:34:19;;;;;;;26.70;21.60;;;20.80;47.80;;;;;;5163702;27;20474;-38
2021/04/18 03:36:50;;;;;;;23.00;19.87;;;20.70;49.50;;;;;;5163616;27;20500;-35
2021/04/18 03:39:20;;;;;;;19.47;13.60;;;20.60;50.50;;;;;;5163164;27;20477;-38
2021/04/18 03:41:51;;;;;;;16.87;12.90;;;20.50;47.90;;;;;;5163016;27;20484;-34
2021/04/18 03:44:21;;;;;;;14.43;9.53;;;20.40;50.90;;;;;;5166658;27;20478;-37
2021/04/18 03:46:51;;;;;;;9.57;7.97;;;20.30;51.40;;;;;;5167132;27;20555;-38
2021/04/18 03:49:21;;;;;;;8.93;8.03;;;20.20;50.20;;;;;;5166535;27;20448;-36
2021/04/18 03:51:53;;;;;;;6.30;5.70;;;20.10;49.00;;;;;;5166032;27;20454;-37
2021/04/18 03:54:23;;;;;;;8.33;6.50;;;20.00;48.30;;;;;;5166967;27;20423;-39
2021/04/18 03:56:53;;;;;;;7.10;5.90;;;20.00;49.80;;;;;;5166093;27;20419;-37
2021/04/18 03:59:24;;;;;;;6.87;5.70;;;19.90;49.90;;;;;;5167019;27;20547;-38
2021/04/18 04:01:54;;;;;;;6.40;5.40;;;19.90;53.60;;;;;;5167473;27;20456;-38
2021/04/18 04:04:24;;;;;;;10.03;6.47;;;19.70;52.30;;;;;;5166869;27;20422;-36
2021/04/18 04:06:56;;;;;;;7.90;6.73;;;19.50;52.60;;;;;;5165805;27;20436;-38
2021/04/18 04:09:26;;;;;;;7.80;7.17;;;19.40;52.40;;;;;;5166780;27;20430;-37
2021/04/18 04:11:56;;;;;;;11.13;7.90;;;19.50;52.60;;;;;;5166201;27;20443;-38
2021/04/18 04:14:26;;;;;;;9.53;7.97;;;19.40;53.10;;;;;;5166401;27;20467;-36
2021/04/18 04:16:56;;;;;;;10.00;9.20;;;19.30;53.50;;;;;;5167347;27;20448;-37
2021/04/18 04:19:26;;;;;;;12.53;11.53;;;19.20;53.40;;;;;;5167215;27;20419;-36
2021/04/18 04:21:57;;;;;;;12.30;11.13;;;19.00;53.80;;;;;;5166941;27;20580;-37
2021/04/18 04:24:27;;;;;;;13.37;11.17;;;19.00;54.60;;;;;;5165778;27;20452;-36
2021/04/18 04:26:57;;;;;;;13.33;12.07;;;18.90;56.70;;;;;;5165043;27;20433;-33
2021/04/18 04:29:28;;;;;;;16.53;15.20;;;18.80;57.60;;;;;;5166402;27;20448;-37
2021/04/18 04:31:58;;;;;;;19.23;17.33;;;18.70;55.80;;;;;;5166927;27;20803;-37
2021/04/18 04:34:28;;;;;;;17.97;16.50;;;18.60;56.70;;;;;;5166925;27;20503;-36
2021/04/18 04:36:59;;;;;;;19.97;18.17;;;18.60;59.30;;;;;;5160357;27;20447;-35
2021/04/18 04:39:29;;;;;;;17.77;16.27;;;18.50;59.50;;;;;;5166432;27;20426;-38
2021/04/18 04:42:00;;;;;;;17.37;15.67;;;18.40;58.50;;;;;;5165672;27;20626;-38
2021/04/18 04:44:30;;;;;;;16.07;14.73;;;18.30;61.50;;;;;;5166624;27;20477;-34
2021/04/18 04:47:00;;;;;;;21.37;19.57;;;18.30;62.50;;;;;;5166048;27;20437;-37
2021/04/18 04:49:31;;;;;;;25.57;23.40;;;18.30;64.00;;;;;;5166440;27;20482;-36
2021/04/18 04:52:02;;;;;;;29.97;27.23;;;18.10;64.10;;;;;;5166339;27;20492;-38
2021/04/18 04:54:32;;;;;;;27.57;25.13;;;18.10;61.00;;;;;;5164918;27;20821;-39
2021/04/18 04:57:02;;;;;;;26.03;23.83;;;18.00;61.40;;;;;;5165399;27;20448;-38
2021/04/18 04:59:32;;;;;;;24.10;22.23;;;17.90;61.90;;;;;;5166352;27;20438;-35
2021/04/18 05:02:02;;;;;;;19.23;17.27;;;17.80;64.00;;;;;;5166159;27;20440;-39
2021/04/18 05:04:32;;;;;;;19.90;17.90;;;17.80;62.40;;;;;;5166062;27;20471;-39
2021/04/18 05:07:03;;;;;;;22.27;20.20;;;17.80;62.30;;;;;;5166133;27;20520;-37
2021/04/18 05:09:33;;;;;;;33.30;30.30;;;17.80;60.50;;;;;;5163445;27;20550;-38
2021/04/18 05:12:05;;;;;;;34.93;31.50;;;17.80;59.30;;;;;;5164696;27;20448;-39
2021/04/18 05:14:35;;;;;;;61.00;55.23;;;17.80;56.90;;;;;;5164343;27;20419;-35
2021/04/18 05:17:05;;;;;;;47.67;43.07;;;18.20;52.50;;;;;;5165233;27;20447;-37
2021/04/18 05:19:35;;;;;;;24.17;21.80;;;18.40;50.40;;;;;;5165769;27;20422;-37
2021/04/18 05:22:06;;;;;;;56.57;51.40;;;18.70;48.30;;;;;;5164725;27;20426;-39
2021/04/18 05:24:37;;;;;;;20.57;18.67;;;19.00;47.70;;;;;;5165772;27;20418;-38
2021/04/18 05:27:07;;;;;;;22.10;20.00;;;19.00;47.00;;;;;;5163853;27;20440;-36
2021/04/18 05:29:37;;;;;;;48.17;43.63;;;19.20;46.30;;;;;;5165541;27;20500;-37
2021/04/18 05:32:08;;;;;;;36.47;33.00;;;19.20;46.10;;;;;;5165773;27;20463;-38
2021/04/18 05:34:42;;;;;;;39.70;35.50;;;19.30;46.30;;;;;;5164195;27;20421;-39
2021/04/18 05:37:13;;;;;;;30.20;27.00;;;19.20;46.20;;;;;;5165155;27;20418;-38
2021/04/18 05:39:43;;;;;;;23.23;20.67;;;19.10;46.60;;;;;;5165240;27;20434;-38
2021/04/18 05:42:14;;;;;;;24.07;21.63;;;19.10;46.50;;;;;;5163412;27;20446;-38
2021/04/18 05:44:46;;;;;;;9.87;8.77;;;18.90;46.70;;;;;;5165399;27;20898;-37
2021/04/18 05:47:16;;;;;;;8.30;5.93;;;18.80;47.80;;;;;;5164747;27;20423;-38
2021/04/18 05:49:46;;;;;;;5.73;5.13;;;18.70;48.00;;;;;;5161544;27;20444;-38
2021/04/18 05:52:17;;;;;;;6.40;5.03;;;18.60;48.90;;;;;;5164730;27;20508;-38
2021/04/18 05:54:47;;;;;;;5.70;5.17;;;18.50;49.70;;;;;;5165524;27;20451;-39
2021/04/18 05:57:17;;;;;;;5.20;4.80;;;18.40;51.90;;;;;;5162943;27;20423;-38
2021/04/18 05:59:48;;;;;;;6.27;5.67;;;18.20;54.70;;;;;;5165194;27;20522;-40
2021/04/18 06:02:18;;;;;;;5.33;4.83;;;18.00;56.30;;;;;;5164764;27;20516;-37
2021/04/18 06:04:50;;;;;;;5.03;4.23;;;17.80;57.60;;;;;;5164633;27;20415;-37
2021/04/18 06:07:22;;;;;;;5.40;4.93;;;17.70;53.90;;;;;;5164367;27;20777;-39
2021/04/18 06:09:55;;;;;;;4.73;4.30;;;17.60;56.80;;;;;;5164638;27;20862;-38
2021/04/18 06:12:25;;;;;;;4.93;4.53;;;17.40;53.60;;;;;;5163282;27;20418;-39
2021/04/18 06:14:55;;;;;;;9.67;6.73;;;17.40;56.30;;;;;;5165404;27;20485;-38
2021/04/18 06:17:24;;;;;;;10.20;9.20;;;17.30;58.20;;;;;;5162411;27;20448;-36
2021/04/18 06:19:55;;;;;;;29.57;26.10;;;17.10;58.50;;;;;;5163450;27;20441;-38
2021/04/18 06:22:26;;;;;;;28.90;25.80;;;17.00;56.70;;;;;;5154013;27;20423;-36
2021/04/18 06:24:56;;;;;;;25.93;23.30;;;16.90;57.30;;;;;;5164741;27;20513;-39
2021/04/18 06:27:26;;;;;;;34.23;30.80;;;16.80;58.90;;;;;;5162558;27;20484;-38
2021/04/18 06:29:56;;;;;;;33.87;30.63;;;16.70;60.90;;;;;;5165012;27;20432;-40
2021/04/18 06:32:26;;;;;;;26.00;23.50;;;16.60;62.60;;;;;;5163861;27;20485;-37
2021/04/18 06:35:02;;;;;;;20.07;17.80;;;16.50;63.90;;;;;;5164422;27;20500;-38
2021/04/18 06:37:34;;;;;;;16.27;14.87;;;16.40;64.70;;;;;;5158383;27;20568;-39
2021/04/18 06:40:05;;;;;;;11.60;10.50;;;16.40;66.20;;;;;;5164343;27;20429;-39
2021/04/18 06:42:39;;;;;;;14.87;13.27;;;16.30;67.00;;;;;;5162786;27;20476;-38
2021/04/18 06:45:11;;;;;;;14.40;13.10;;;16.20;66.50;;;;;;5164778;27;20411;-35
2021/04/18 06:47:41;;;;;;;17.17;15.27;;;16.20;66.10;;;;;;5158975;27;20414;-36
2021/04/18 06:50:12;;;;;;;27.43;24.97;;;16.00;67.20;;;;;;5164315;27;20462;-38
2021/04/18 06:52:43;;;;;;;30.20;27.40;;;15.90;67.80;;;;;;5164209;27;20444;-36
2021/04/18 06:55:14;;;;;;;29.60;26.87;;;15.90;66.80;;;;;;5164495;27;20743;-38
2021/04/18 06:57:45;;;;;;;27.37;24.80;;;15.80;69.20;;;;;;5162217;27;20461;-41
2021/04/18 07:00:16;;;;;;;22.50;20.40;;;15.80;69.40;;;;;;5164524;27;20464;-37
2021/04/18 07:02:46;;;;;;;20.43;18.53;;;15.70;70.20;;;;;;5163512;27;20572;-38
2021/04/18 07:05:18;;;;;;;19.40;17.50;;;15.70;69.60;;;;;;5164489;27;20478;-37
2021/04/18 07:07:50;;;;;;;19.80;18.03;;;15.70;70.10;;;;;;5163326;27;20811;-37
2021/04/18 07:10:28;;;;;;;19.03;17.53;;;15.60;71.90;;;;;;5164217;27;20455;-38
2021/04/18 07:13:08;;;;;;;18.80;17.20;;;15.60;72.00;;;;;;5157761;27;20492;-38
2021/04/18 07:15:40;;;;;;;20.60;18.57;;;15.50;71.30;;;;;;5164712;27;20770;-38
2021/04/18 07:18:13;;;;;;;19.43;17.60;;;15.40;73.80;;;;;;5165901;27;20520;-36
2021/04/18 07:21:04;;;;;;;18.23;16.43;;;15.40;73.30;;;;;;5168305;27;20468;-39
2021/04/18 07:23:36;;;;;;;21.43;19.07;;;15.40;77.20;;;;;;5162145;27;20570;-37
2021/04/18 07:26:22;;;;;;;20.27;18.20;;;15.30;77.00;;;;;;5156795;27;20472;-38
2021/04/18 07:28:54;;;;;;;21.53;19.20;;;15.10;75.10;;;;;;5168244;27;20443;-38
2021/04/18 07:31:34;;;;;;;18.60;16.77;;;15.10;79.10;;;;;;5166815;27;20451;-34
2021/04/18 07:34:07;;;;;;;16.93;14.93;;;15.10;79.40;;;;;;5167266;27;20434;-35
2021/04/18 07:36:40;;;;;;;15.93;14.50;;;15.00;79.50;;;;;;5166863;27;20422;-38
2021/04/18 07:39:13;;;;;;;17.00;15.40;;;14.90;81.10;;;;;;5167374;27;20504;-38
2021/04/18 07:41:45;;;;;;;15.70;14.33;;;14.90;81.60;;;;;;5166312;27;20986;-35
2021/04/18 07:44:17;;;;;;;15.37;13.77;;;14.80;84.40;;;;;;5168131;27;20472;-37
2021/04/18 07:46:48;;;;;;;14.60;13.10;;;14.80;85.10;;;;;;5167555;27;20761;-37
2021/04/18 07:49:19;;;;;;;17.80;13.70;;;14.70;87.00;;;;;;5167559;27;20469;-40
2021/04/18 07:51:50;;;;;;;17.37;15.70;;;14.60;88.00;;;;;;5167377;27;20931;-35
2021/04/18 07:54:21;;;;;;;19.80;18.10;;;14.60;89.30;;;;;;5167275;27;20458;-37
2021/04/18 07:56:52;;;;;;;18.57;16.87;;;14.50;86.90;;;;;;5166174;27;21042;-36
2021/04/18 07:59:22;;;;;;;17.90;16.30;;;14.50;89.00;;;;;;5167308;27;20436;-35
2021/04/18 08:01:52;;;;;;;16.63;14.40;;;14.40;90.20;;;;;;5167398;27;20571;-38
2021/04/18 08:04:22;;;;;;;13.30;12.10;;;14.40;90.20;;;;;;5167654;27;20462;-37
2021/04/18 08:06:54;;;;;;;12.90;11.57;;;14.30;90.50;;;;;;5165657;27;20427;-38
2021/04/18 08:09:25;;;;;;;12.10;11.10;;;14.30;92.00;;;;;;5153058;27;20459;-38
2021/04/18 08:12:13;;;;;;;12.80;11.50;;;14.20;91.70;;;;;;5166419;27;20436;-37
2021/04/18 08:14:46;;;;;;;11.30;10.20;;;14.20;92.50;;;;;;5167720;27;20447;-37
2021/04/18 08:17:18;;;;;;;10.87;9.33;;;14.10;92.60;;;;;;5165838;27;20451;-37
2021/04/18 08:19:58;;;;;;;7.63;6.93;;;14.00;91.80;;;;;;5164150;27;20540;-37
2021/04/18 08:23:05;;;;;;;8.07;7.37;;;14.00;90.60;;;;;;5167219;27;20846;-35
2021/04/18 08:25:38;;;;;;;7.87;7.17;;;13.90;91.70;;;;;;5167363;27;20488;-38
2021/04/18 08:28:12;;;;;;;7.70;7.00;;;13.90;92.50;;;;;;5165348;27;20470;-35
2021/04/18 08:31:05;;;;;;;8.20;7.40;;;13.90;93.00;;;;;;5166619;27;20444;-38
2021/04/18 08:33:49;;;;;;;7.57;6.80;;;13.90;93.60;;;;;;5165942;27;20440;-38
2021/04/18 08:36:20;;;;;;;7.90;7.10;;;13.80;94.30;;;;;;5166763;27;20448;-37
2021/04/18 08:39:11;;;;;;;8.10;7.33;;;13.70;94.80;;;;;;5166820;27;20440;-36
2021/04/18 08:41:44;;;;;;;9.33;8.37;;;13.70;94.50;;;;;;5165928;27;20495;-37
2021/04/18 08:44:18;;;;;;;8.50;7.60;;;13.70;95.20;;;;;;5166619;27;20557;-37
2021/04/18 08:46:50;;;;;;;12.37;7.30;;;13.60;94.70;;;;;;5166555;27;20480;-37
2021/04/18 08:49:35;;;;;;;10.57;8.43;;;13.60;95.10;;;;;;5166856;27;20456;-36
2021/04/18 08:52:07;;;;;;;8.30;7.60;;;13.50;95.80;;;;;;5162214;27;20451;-36
2021/04/18 08:54:39;;;;;;;7.93;7.23;;;13.50;96.40;;;;;;5149724;27;20522;-37
2021/04/18 08:57:13;;;;;;;9.47;8.57;;;13.50;96.10;;;;;;5166248;27;20512;-38
2021/04/18 08:59:47;;;;;;;8.50;7.80;;;13.40;95.70;;;;;;5166391;27;20516;-35
2021/04/18 09:02:17;;;;;;;8.07;7.37;;;13.40;96.60;;;;;;5165755;27;20486;-37
2021/04/18 09:04:49;;;;;;;8.73;7.90;;;13.30;97.20;;;;;;5165726;27;20455;-38
2021/04/18 09:07:21;;;;;;;8.73;7.93;;;13.20;97.50;;;;;;5166115;27;20500;-37
2021/04/18 09:09:51;;;;;;;9.13;7.77;;;13.10;97.70;;;;;;5165869;27;20443;-39
2021/04/18 09:12:22;;;;;;;8.50;7.70;;;13.10;98.20;;;;;;5165372;27;20440;-32
2021/04/18 09:14:53;;;;;;;10.13;7.40;;;13.00;98.80;;;;;;5165787;27;20440;-35
2021/04/18 09:17:25;;;;;;;8.80;7.80;;;13.10;99.00;;;;;;5161169;27;20470;-38
2021/04/18 09:19:58;;;;;;;8.83;7.93;;;13.00;99.20;;;;;;5164926;27;20500;-40
2021/04/18 09:22:30;;;;;;;8.30;7.50;;;12.90;99.10;;;;;;5165412;27;20487;-35
2021/04/18 09:25:06;;;;;;;9.50;8.60;;;12.90;99.30;;;;;;5166067;27;20443;-36
2021/04/18 09:27:40;;;;;;;8.90;7.77;;;12.80;99.30;;;;;;5164573;27;20484;-37
2021/04/18 09:30:12;;;;;;;7.57;6.87;;;12.80;99.10;;;;;;5165636;27;20512;-38
2021/04/18 09:32:44;;;;;;;10.83;7.50;;;12.70;98.80;;;;;;5165585;27;20481;-38
2021/04/18 09:35:17;;;;;;;9.30;7.47;;;12.70;98.80;;;;;;5162177;27;20451;-36
2021/04/18 09:37:53;;;;;;;7.90;7.10;;;12.60;99.30;;;;;;5165717;27;20738;-36
2021/04/18 09:40:26;;;;;;;10.40;7.67;;;12.60;99.90;;;;;;5164987;27;20451;-38
2021/04/18 09:42:59;;;;;;;7.50;6.90;;;12.50;99.90;;;;;;5164654;27;20481;-37
2021/04/18 09:45:31;;;;;;;7.60;6.90;;;12.50;99.90;;;;;;5164601;27;20496;-40
2021/04/18 09:48:13;;;;;;;6.80;6.20;;;12.50;99.90;;;;;;5165349;27;20485;-36
2021/04/18 09:50:44;;;;;;;7.43;6.73;;;12.40;99.90;;;;;;5165846;27;20474;-36
2021/04/18 09:53:18;;;;;;;7.37;6.70;;;12.40;99.90;;;;;;5164473;27;20519;-40
2021/04/18 09:55:56;;;;;;;7.33;6.63;;;12.40;99.90;;;;;;5164698;27;20465;-35
2021/04/18 09:58:30;;;;;;;7.23;6.53;;;12.30;99.90;;;;;;5164115;27;20436;-38
2021/04/18 10:01:00;;;;;;;7.13;6.43;;;12.30;99.90;;;;;;5165162;27;20513;-36
2021/04/18 10:03:36;;;;;;;7.33;6.47;;;12.20;99.90;;;;;;5165391;27;20452;-36
2021/04/18 10:06:09;;;;;;;6.47;5.80;;;12.10;99.90;;;;;;5165235;27;20443;-37
2021/04/18 10:08:40;;;;;;;6.80;6.20;;;12.10;99.90;;;;;;5162344;27;20500;-33
2021/04/18 10:11:21;;;;;;;7.20;6.50;;;12.00;99.90;;;;;;5164276;27;20981;-38
2021/04/18 10:13:54;;;;;;;9.23;5.95;;;12.00;99.90;;;;;;5163749;27;20424;-37
2021/04/18 10:16:27;;;;;;;7.30;5.97;;;12.00;99.90;;;;;;5164182;27;20254;-41
2021/04/18 10:19:10;;;;;;;6.80;6.13;;;11.90;99.90;;;;;;5164232;27;20979;-33
2021/04/18 10:21:41;;;;;;;7.10;6.40;;;11.90;99.90;;;;;;5164820;27;20490;-38
2021/04/18 10:24:34;;;;;;;7.00;6.30;;;11.90;99.90;;;;;;5165212;27;20448;-38
2021/04/18 10:27:06;;;;;;;7.30;6.60;;;11.80;99.90;;;;;;5164451;27;20220;-38
2021/04/18 10:29:38;;;;;;;7.67;5.70;;;11.80;99.90;;;;;;5163827;27;20443;-36
2021/04/18 10:32:08;;;;;;;7.07;6.40;;;11.80;99.90;;;;;;5165207;27;20461;-36
2021/04/18 10:34:39;;;;;;;6.50;5.77;;;11.70;99.90;;;;;;5164899;27;20448;-36
2021/04/18 10:37:09;;;;;;;7.57;5.85;;;11.60;99.90;;;;;;5165018;27;20452;-36
2021/04/18 10:39:39;;;;;;;6.30;5.70;;;11.60;99.90;;;;;;5164461;27;20235;-36
2021/04/18 10:42:10;;;;;;;6.70;5.73;;;11.60;99.90;;;;;;5163190;27;20333;-36
2021/04/18 10:44:41;;;;;;;6.78;6.10;;;11.60;99.90;;;;;;5164332;27;20451;-36
2021/04/18 10:47:16;;;;;;;7.18;5.72;;;11.50;99.90;;;;;;5164645;27;20186;-35
2021/04/18 10:49:48;;;;;;;6.47;5.68;;;11.50;99.90;;;;;;5165049;27;20285;-38
2021/04/18 10:52:18;;;;;;;8.30;6.00;;;11.40;99.90;;;;;;5159824;27;20207;-38
2021/04/18 10:54:48;;;;;;;9.35;5.82;;;11.40;99.90;;;;;;5168576;27;20198;-36
2021/04/18 10:57:18;;;;;;;7.07;6.30;;;11.30;99.90;;;;;;5168342;27;20254;-39
2021/04/18 10:59:50;;;;;;;6.72;6.07;;;11.30;99.90;;;;;;5168654;27;20273;-38
2021/04/18 11:02:20;;;;;;;6.30;5.35;;;11.30;99.90;;;;;;5168702;27;20275;-38
2021/04/18 11:04:51;;;;;;;7.68;6.47;;;11.30;99.90;;;;;;5169625;27;20186;-36
2021/04/18 11:07:21;;;;;;;7.60;6.30;;;11.30;99.90;;;;;;5168536;27;20201;-38
2021/04/18 11:09:51;;;;;;;6.57;5.95;;;11.30;99.90;;;;;;5156347;27;20456;-34
2021/04/18 11:12:22;;;;;;;6.75;6.15;;;11.20;99.90;;;;;;5165832;27;20198;-38
2021/04/18 11:14:53;;;;;;;6.70;6.00;;;11.20;99.90;;;;;;5163039;27;20191;-38
2021/04/18 11:17:24;;;;;;;6.45;5.78;;;11.10;99.90;;;;;;5168311;27;20213;-38
2021/04/18 11:19:54;;;;;;;6.63;6.03;;;11.00;99.90;;;;;;5168461;27;20298;-35
2021/04/18 11:22:25;;;;;;;7.18;6.30;;;11.00;99.90;;;;;;5167260;27;20230;-37
2021/04/18 11:24:59;;;;;;;6.72;6.07;;;10.90;99.90;;;;;;5168587;27;20256;-34
2021/04/18 11:27:29;;;;;;;6.97;5.88;;;10.90;99.90;;;;;;5168019;27;20683;-38
2021/04/18 11:30:00;;;;;;;7.97;6.32;;;10.90;99.90;;;;;;5168022;27;20563;-37
2021/04/18 11:32:30;;;;;;;6.65;6.05;;;10.90;99.90;;;;;;5167533;27;20217;-37
2021/04/18 11:35:00;;;;;;;9.60;5.90;;;10.90;99.90;;;;;;5168084;27;20203;-39
2021/04/18 11:37:30;;;;;;;7.15;6.28;;;10.80;99.90;;;;;;5168244;27;20259;-36
2021/04/18 11:40:00;;;;;;;7.03;5.82;;;10.70;99.90;;;;;;5167630;27;20203;-40
2021/04/18 11:42:49;;;;;;;6.22;5.63;;;10.70;99.90;;;;;;5166925;27;20306;-36
2021/04/18 11:45:21;;;;;;;6.97;6.28;;;10.60;99.90;;;;;;5165495;27;20216;-32
2021/04/18 11:47:52;;;;;;;7.82;6.05;;;10.70;99.90;;;;;;5167425;27;20558;-39
2021/04/18 11:50:23;;;;;;;6.30;5.80;;;10.60;99.90;;;;;;5167246;27;20191;-39
2021/04/18 11:52:53;;;;;;;8.50;7.65;;;10.60;99.90;;;;;;5166740;27;20254;-35
2021/04/18 11:55:26;;;;;;;8.00;7.30;;;10.60;99.90;;;;;;5167823;27;20295;-36
2021/04/18 11:57:55;;;;;;;7.63;6.82;;;10.60;99.90;;;;;;5167023;27;20191;-37
2021/04/18 12:00:27;;;;;;;6.35;5.75;;;10.60;99.90;;;;;;5167308;27;20206;-36
2021/04/18 12:02:57;;;;;;;6.40;5.50;;;10.50;99.90;;;;;;5160654;27;20214;-34
2021/04/18 12:05:27;;;;;;;6.35;5.75;;;10.40;99.90;;;;;;5167545;27;20199;-35
2021/04/18 12:07:57;;;;;;;8.23;5.93;;;10.40;99.90;;;;;;5167651;27;20219;-36
2021/04/18 12:10:27;;;;;;;5.70;5.00;;;10.30;99.90;;;;;;5152768;27;20218;-38
2021/04/18 12:12:57;;;;;;;5.30;4.80;;;10.30;99.90;;;;;;5166627;27;20263;-32
2021/04/18 12:15:28;;;;;;;5.70;4.78;;;10.30;99.90;;;;;;5167803;27;20187;-37
2021/04/18 12:17:58;;;;;;;6.60;5.55;;;10.20;99.90;;;;;;5167513;27;20247;-34
2021/04/18 12:20:28;;;;;;;6.20;5.22;;;10.30;99.90;;;;;;5167098;27;20254;-35
2021/04/18 12:22:59;;;;;;;6.03;5.47;;;10.20;99.90;;;;;;5164267;27;20270;-36
2021/04/18 12:25:28;;;;;;;4.95;4.50;;;10.20;99.90;;;;;;5166728;27;20251;-34
2021/04/18 12:27:58;;;;;;;5.75;5.25;;;10.20;99.90;;;;;;5164465;27;20290;-38
2021/04/18 12:30:30;;;;;;;5.50;4.95;;;10.20;99.90;;;;;;5166521;27;20232;-37
2021/04/18 12:33:00;;;;;;;5.80;5.20;;;10.10;99.90;;;;;;5161721;27;20251;-38
2021/04/18 12:35:30;;;;;;;5.95;5.07;;;10.10;99.90;;;;;;5166834;27;20209;-36
2021/04/18 12:38:00;;;;;;;5.90;5.40;;;10.10;99.90;;;;;;5166838;27;20235;-31
2021/04/18 12:40:31;;;;;;;5.65;5.07;;;10.00;99.90;;;;;;5166108;27;20209;-36
2021/04/18 12:43:01;;;;;;;5.35;4.85;;;9.90;99.90;;;;;;5165167;27;21158;-36
2021/04/18 12:45:32;;;;;;;5.88;4.88;;;9.90;99.90;;;;;;5167498;27;20195;-34
2021/04/18 12:48:03;;;;;;;5.03;4.53;;;9.90;99.90;;;;;;5166075;27;20199;-37
2021/04/18 12:50:33;;;;;;;5.90;5.00;;;9.80;99.90;;;;;;5167091;27;20194;-34
2021/04/18 12:53:03;;;;;;;5.00;4.53;;;9.80;99.90;;;;;;5166067;27;20262;-38
2021/04/18 12:55:34;;;;;;;5.22;4.65;;;9.90;99.90;;;;;;5166786;27;20198;-30
2021/04/18 12:58:04;;;;;;;5.38;4.93;;;9.90;99.90;;;;;;5165458;27;20194;-36
2021/04/18 13:00:35;;;;;;;4.47;4.07;;;9.90;99.90;;;;;;5167306;27;20195;-32
2021/04/18 13:03:06;;;;;;;5.55;4.85;;;9.80;99.90;;;;;;5164940;27;20222;-36